Herbert J Plaisance — WDE6917 — position and weather

sailwx.info

Track history (hours):
 
Tides and Currents Weather Stations Pressure Air Temp Water Temp Dewpoint Dewpoint Depression Visibility Wind Speed Wind Dir Waves Ship Positions

Herbert J Plaisance

Owner: S & B Marine LLC, Harvey, LA. More information available from US FCC via Universal Licensing System and Coast Guard Vessel Documentation Center.

Last reported at 2015-Jan-22 00:24 UTC. Time now 2015-Jan-28 01:31 UTC.
Position N 29°55' W 090°05'.

Length 20 m; draft 3 m.

Type: Towing. MMSI: 367386576.

Date/timePositionNaut miles runAvg speedWind from/ knotsBaromVisibWave heightAir tempDewpointWater temp
2015-Jan-22 00:24N 29°55' W 090°05'1 0.6
2015-Jan-21 23:27N 29°54' W 090°05'0 0.0
2015-Jan-21 22:50N 29°54' W 090°05'0 0.1
2015-Jan-21 22:43N 29°54' W 090°05'0 0.0
2015-Jan-21 22:10N 29°54' W 090°05'0 0.0
2015-Jan-21 21:25N 29°54' W 090°05'49 1.2
2015-Jan-20 06:16N 29°34' W 090°56'6 7.3
2015-Jan-20 05:30N 29°37' W 091°01'6 6.9
2015-Jan-20 04:33N 29°40' W 091°08'5 4.6
2015-Jan-20 03:33N 29°41' W 091°13'6 6.2
2015-Jan-20 02:34N 29°38' W 091°19'7 6.6
2015-Jan-20 01:31N 29°40' W 091°27'6 6.4
2015-Jan-20 00:34N 29°43' W 091°33'  
2015-Jan-16 20:20N 29°39' W 091°24'4 5.8
2015-Jan-16 19:33N 29°38' W 091°19'6 6.2
2015-Jan-16 18:33N 29°42' W 091°13'6 6.2
2015-Jan-16 17:33N 29°46' W 091°18'  
Track history (hours):
 
Tides and Currents Weather Stations Pressure Air Temp Water Temp Dewpoint Dewpoint Depression Visibility Wind Speed Wind Dir Waves Ship Positions

Herbert J Plaisance

Owner: S & B Marine LLC, Harvey, LA. More information available from US FCC via Universal Licensing System and Coast Guard Vessel Documentation Center.

Last reported at 2015-Jan-22 00:24 UTC. Time now 2015-Jan-28 01:31 UTC.
Position N 29°55' W 090°05'.

Length 20 m; draft 3 m.

Type: Towing. MMSI: 367386576.

Date/timePositionNaut miles runAvg speedWind from/ knotsBaromVisibWave heightAir tempDewpointWater temp
2015-Jan-22 00:24N 29°55' W 090°05'1 0.6
2015-Jan-21 23:27N 29°54' W 090°05'0 0.0
2015-Jan-21 22:50N 29°54' W 090°05'0 0.1
2015-Jan-21 22:43N 29°54' W 090°05'0 0.0
2015-Jan-21 22:10N 29°54' W 090°05'0 0.0
2015-Jan-21 21:25N 29°54' W 090°05'49 1.2
2015-Jan-20 06:16N 29°34' W 090°56'6 7.3
2015-Jan-20 05:30N 29°37' W 091°01'6 6.9
2015-Jan-20 04:33N 29°40' W 091°08'5 4.6
2015-Jan-20 03:33N 29°41' W 091°13'6 6.2
2015-Jan-20 02:34N 29°38' W 091°19'7 6.6
2015-Jan-20 01:31N 29°40' W 091°27'6 6.4
2015-Jan-20 00:34N 29°43' W 091°33'  
2015-Jan-16 20:20N 29°39' W 091°24'4 5.8
2015-Jan-16 19:33N 29°38' W 091°19'6 6.2
2015-Jan-16 18:33N 29°42' W 091°13'6 6.2
2015-Jan-16 17:33N 29°46' W 091°18'  

Dump ship's entire track history